createdAt,value
2023-05-13T00:00:38.969Z,38.23
2023-05-13T00:01:39.062Z,38.20
2023-05-13T00:02:39.068Z,38.17
2023-05-13T00:03:39.158Z,38.13
2023-05-13T00:04:39.073Z,38.14
2023-05-13T00:05:39.156Z,38.08
2023-05-13T00:06:39.203Z,38.11
2023-05-13T00:07:39.175Z,38.12
2023-05-13T00:08:39.184Z,38.10
2023-05-13T00:09:39.234Z,38.07
2023-05-13T00:10:39.252Z,38.11
2023-05-13T00:11:39.310Z,38.10
2023-05-13T00:12:39.314Z,38.10
2023-05-13T00:13:39.338Z,38.08
2023-05-13T00:14:39.383Z,38.07
2023-05-13T00:15:39.426Z,38.06
2023-05-13T00:16:39.538Z,38.07
2023-05-13T00:17:39.513Z,38.04
2023-05-13T00:18:39.547Z,38.07
2023-05-13T00:19:39.533Z,38.05
2023-05-13T00:20:39.596Z,38.05
2023-05-13T00:21:39.591Z,38.07
2023-05-13T00:22:39.628Z,38.04
2023-05-13T00:23:39.669Z,38.07
2023-05-13T00:24:39.678Z,38.07
2023-05-13T00:25:39.706Z,38.07
2023-05-13T00:26:39.736Z,38.06
2023-05-13T00:27:39.852Z,38.05
2023-05-13T00:28:39.809Z,38.05
2023-05-13T00:29:39.853Z,38.08
2023-05-13T00:30:39.892Z,38.07
2023-05-13T00:31:39.975Z,38.06
2023-05-13T00:32:40.013Z,38.06
2023-05-13T00:33:39.995Z,38.07
2023-05-13T00:34:40.020Z,38.06
2023-05-13T00:35:40.069Z,38.08
2023-05-13T00:36:40.107Z,38.06
2023-05-13T00:37:40.146Z,38.08
2023-05-13T00:38:40.181Z,38.06
2023-05-13T00:39:40.214Z,38.07
2023-05-13T00:40:40.243Z,38.06
2023-05-13T00:41:40.282Z,38.04
2023-05-13T00:42:40.337Z,38.06
2023-05-13T00:43:40.440Z,38.05
2023-05-13T00:44:40.404Z,38.07
2023-05-13T00:45:40.468Z,38.08
2023-05-13T00:46:40.479Z,38.04
2023-05-13T00:47:40.568Z,38.06
2023-05-13T00:48:40.558Z,38.06
2023-05-13T00:49:40.601Z,38.06
2023-05-13T00:50:40.632Z,38.06
2023-05-13T00:51:40.671Z,38.09
2023-05-13T00:52:40.708Z,38.08
2023-05-13T00:53:40.754Z,38.06
2023-05-13T00:54:40.792Z,38.05
2023-05-13T00:55:40.836Z,38.07
2023-05-13T00:56:40.885Z,38.06
2023-05-13T00:57:40.918Z,38.06
2023-05-13T00:58:40.976Z,38.08
2023-05-13T00:59:41.006Z,38.06
2023-05-13T01:00:41.006Z,38.04
2023-05-13T01:01:41.121Z,38.06
2023-05-13T01:02:41.181Z,38.07
2023-05-13T01:03:41.223Z,38.05
2023-05-13T01:04:41.177Z,38.06
2023-05-13T01:05:41.218Z,38.07
2023-05-13T01:06:41.251Z,38.06
2023-05-13T01:07:41.302Z,38.09
2023-05-13T01:08:41.323Z,38.06
2023-05-13T01:09:41.366Z,38.06
2023-05-13T01:10:41.409Z,38.06
2023-05-13T01:11:41.453Z,38.07
2023-05-13T01:12:41.496Z,38.06
2023-05-13T01:13:41.533Z,38.06
2023-05-13T01:14:41.578Z,38.07
2023-05-13T01:15:41.627Z,38.07
2023-05-13T01:16:41.689Z,38.07
2023-05-13T01:17:41.732Z,38.05
2023-05-13T01:18:41.792Z,38.09
2023-05-13T01:19:41.769Z,38.07
2023-05-13T01:20:41.811Z,38.06
2023-05-13T01:21:41.851Z,38.08
2023-05-13T01:22:41.904Z,38.08
2023-05-13T01:23:41.936Z,38.07
2023-05-13T01:24:42.367Z,38.07
2023-05-13T01:25:42.331Z,38.06
2023-05-13T01:26:42.341Z,38.06
2023-05-13T01:27:42.345Z,38.06
2023-05-13T01:28:42.338Z,38.07
2023-05-13T01:29:42.336Z,38.08
2023-05-13T01:30:42.345Z,38.06
2023-05-13T01:31:42.469Z,38.08
2023-05-13T01:32:42.369Z,38.08
2023-05-13T01:33:42.364Z,38.09
2023-05-13T01:34:42.417Z,38.07
2023-05-13T01:35:42.446Z,38.07
2023-05-13T01:36:42.486Z,38.06
2023-05-13T01:37:42.552Z,38.08
2023-05-13T01:38:42.563Z,38.07
2023-05-13T01:39:42.617Z,38.07
2023-05-13T01:40:42.664Z,38.07
2023-05-13T01:41:42.704Z,38.07
2023-05-13T01:42:42.739Z,38.07
2023-05-13T01:43:42.780Z,38.07
2023-05-13T01:44:42.824Z,38.08
2023-05-13T01:45:42.861Z,38.08
2023-05-13T01:46:42.969Z,38.07
2023-05-13T01:47:43.359Z,38.05
2023-05-13T01:48:43.356Z,38.08
2023-05-13T01:49:43.373Z,38.07
2023-05-13T01:50:43.371Z,38.06
2023-05-13T01:51:43.400Z,38.08
2023-05-13T01:52:43.380Z,38.08
2023-05-13T01:53:43.393Z,38.06
2023-05-13T01:54:43.355Z,38.06
2023-05-13T01:55:43.355Z,38.05
2023-05-13T01:56:43.367Z,38.08
2023-05-13T01:57:43.418Z,38.07
2023-05-13T01:58:43.458Z,38.06
2023-05-13T01:59:43.486Z,38.10
2023-05-13T02:00:43.531Z,38.07
2023-05-13T02:01:43.641Z,38.07
2023-05-13T02:02:43.642Z,38.08
2023-05-13T02:03:43.784Z,38.08
2023-05-13T02:04:43.723Z,38.06
2023-05-13T02:05:43.764Z,38.07
2023-05-13T02:06:43.811Z,38.10
2023-05-13T02:07:43.857Z,38.07
2023-05-13T02:08:43.903Z,38.08
2023-05-13T02:09:43.951Z,38.07
2023-05-13T02:10:43.999Z,38.09
2023-05-13T02:11:44.053Z,38.09
2023-05-13T02:12:44.090Z,38.09
2023-05-13T02:13:44.253Z,38.10
2023-05-13T02:14:44.193Z,38.06
2023-05-13T02:15:44.263Z,38.08
2023-05-13T02:16:44.362Z,38.09
2023-05-13T02:17:44.421Z,38.08
2023-05-13T02:18:44.466Z,38.07
2023-05-13T02:19:44.439Z,38.07
2023-05-13T02:20:44.464Z,38.08
2023-05-13T02:21:44.522Z,38.10
2023-05-13T02:22:44.568Z,38.06
2023-05-13T02:23:44.619Z,38.08
2023-05-13T02:24:44.659Z,38.08
2023-05-13T02:25:44.714Z,38.06
2023-05-13T02:26:45.727Z,38.07
2023-05-13T02:27:44.804Z,38.08
2023-05-13T02:28:44.845Z,38.09
2023-05-13T02:29:44.889Z,38.08
2023-05-13T02:30:44.929Z,38.09
2023-05-13T02:31:45.056Z,38.08
2023-05-13T02:32:45.053Z,38.07
2023-05-13T02:33:45.072Z,38.08
2023-05-13T02:34:45.116Z,38.09
2023-05-13T02:35:45.180Z,38.07
2023-05-13T02:36:45.215Z,38.10
2023-05-13T02:37:45.251Z,38.07
2023-05-13T02:38:45.296Z,38.09
2023-05-13T02:39:45.360Z,38.08
2023-05-13T02:40:45.384Z,38.08
2023-05-13T02:41:45.430Z,38.08
2023-05-13T02:42:45.488Z,38.06
2023-05-13T02:43:45.518Z,38.08
2023-05-13T02:44:45.560Z,38.08
2023-05-13T02:45:45.629Z,38.09
2023-05-13T02:46:45.657Z,38.10
2023-05-13T02:47:45.724Z,38.09
2023-05-13T02:48:45.746Z,38.10
2023-05-13T02:49:45.797Z,38.10
2023-05-13T02:50:45.844Z,38.10
2023-05-13T02:51:45.903Z,38.09
2023-05-13T02:52:45.923Z,38.08
2023-05-13T02:53:45.965Z,38.10
2023-05-13T02:54:46.060Z,38.09
2023-05-13T02:55:46.143Z,38.08
2023-05-13T02:56:46.104Z,38.07
2023-05-13T02:57:46.161Z,38.12
2023-05-13T02:58:46.216Z,38.08
2023-05-13T02:59:46.251Z,38.10
2023-05-13T03:00:46.292Z,38.09
2023-05-13T03:01:46.379Z,38.13
2023-05-13T03:02:46.447Z,38.10
2023-05-13T03:03:46.528Z,38.09
2023-05-13T03:04:46.499Z,38.09
2023-05-13T03:05:46.560Z,38.10
2023-05-13T03:06:46.590Z,38.07
2023-05-13T03:07:46.666Z,38.10
2023-05-13T03:08:46.702Z,38.10
2023-05-13T03:09:46.741Z,38.10
2023-05-13T03:10:46.787Z,38.09
2023-05-13T03:11:46.829Z,38.08
2023-05-13T03:12:46.887Z,38.09
2023-05-13T03:13:46.928Z,38.08
2023-05-13T03:14:46.972Z,38.09
2023-05-13T03:15:47.029Z,38.08
2023-05-13T03:16:47.062Z,38.08
2023-05-13T03:17:47.204Z,38.07
2023-05-13T03:18:47.179Z,38.09
2023-05-13T03:19:47.204Z,38.09
2023-05-13T03:20:47.253Z,38.11
2023-05-13T03:21:47.295Z,38.10
2023-05-13T03:22:47.363Z,38.08
2023-05-13T03:23:47.824Z,38.10
2023-05-13T03:24:47.787Z,38.09
2023-05-13T03:25:47.786Z,38.09
2023-05-13T03:26:47.790Z,38.10
2023-05-13T03:27:47.800Z,38.10
2023-05-13T03:28:47.793Z,38.10
2023-05-13T03:29:47.786Z,38.09
2023-05-13T03:30:47.785Z,38.09
2023-05-13T03:31:47.910Z,38.09
2023-05-13T03:32:47.972Z,38.08
2023-05-13T03:33:47.919Z,38.09
2023-05-13T03:34:47.969Z,38.09
2023-05-13T03:35:48.021Z,38.10
2023-05-13T03:36:48.068Z,38.10
2023-05-13T03:37:48.129Z,38.08
2023-05-13T03:38:48.183Z,38.09
2023-05-13T03:39:48.282Z,38.09
2023-05-13T03:40:48.286Z,38.11
2023-05-13T03:41:48.714Z,38.10
2023-05-13T03:42:48.721Z,38.10
2023-05-13T03:43:48.756Z,38.09
2023-05-13T03:44:48.728Z,38.11
2023-05-13T03:45:48.775Z,38.08
2023-05-13T03:46:48.803Z,38.09
2023-05-13T03:47:48.783Z,38.08
2023-05-13T03:48:48.721Z,38.10
2023-05-13T03:49:48.764Z,38.06
2023-05-13T03:50:48.817Z,38.09
2023-05-13T03:51:48.928Z,38.09
2023-05-13T03:52:48.948Z,38.08
2023-05-13T03:53:48.973Z,38.09
2023-05-13T03:54:49.130Z,38.12
2023-05-13T03:55:49.112Z,38.09
2023-05-13T03:56:49.175Z,38.10
2023-05-13T03:57:49.206Z,38.10
2023-05-13T03:58:49.260Z,38.08
2023-05-13T03:59:49.315Z,38.11
2023-05-13T04:00:49.383Z,38.10
2023-05-13T04:01:49.462Z,38.10
2023-05-13T04:02:49.713Z,38.09
2023-05-13T04:03:49.534Z,38.10
2023-05-13T04:04:49.619Z,38.11
2023-05-13T04:05:49.639Z,38.13
2023-05-13T04:06:49.698Z,38.13
2023-05-13T04:07:49.751Z,38.11
2023-05-13T04:08:50.014Z,38.11
2023-05-13T04:09:49.868Z,38.08
2023-05-13T04:10:49.914Z,38.11
2023-05-13T04:11:50.004Z,38.10
2023-05-13T04:12:50.031Z,38.11
2023-05-13T04:13:50.082Z,38.10
2023-05-13T04:14:50.144Z,38.13
2023-05-13T04:15:50.208Z,38.11
2023-05-13T04:16:50.324Z,38.11
2023-05-13T04:17:50.377Z,38.11
2023-05-13T04:18:50.441Z,38.11
2023-05-13T04:19:50.429Z,38.11
2023-05-13T04:20:50.490Z,38.12
2023-05-13T04:21:50.532Z,38.08
2023-05-13T04:22:50.592Z,38.11
2023-05-13T04:23:50.653Z,38.12
2023-05-13T04:24:50.695Z,38.14
2023-05-13T04:25:50.773Z,38.08
2023-05-13T04:26:50.823Z,38.12
2023-05-13T04:27:50.880Z,38.12
2023-05-13T04:28:50.920Z,38.12
2023-05-13T04:29:51.020Z,38.12
2023-05-13T04:30:51.028Z,38.09
2023-05-13T04:31:51.122Z,38.08
2023-05-13T04:32:51.200Z,38.11
2023-05-13T04:33:51.192Z,38.12
2023-05-13T04:34:51.254Z,38.11
2023-05-13T04:35:51.315Z,38.10
2023-05-13T04:36:51.373Z,38.13
2023-05-13T04:37:51.423Z,38.11
2023-05-13T04:38:51.478Z,38.11
2023-05-13T04:39:51.528Z,38.12
2023-05-13T04:40:51.598Z,38.10
2023-05-13T04:41:51.645Z,38.13
2023-05-13T04:42:51.712Z,38.12
2023-05-13T04:43:51.811Z,38.10
2023-05-13T04:44:51.819Z,38.11
2023-05-13T04:45:51.883Z,38.13
2023-05-13T04:46:51.970Z,38.12
2023-05-13T04:47:52.030Z,38.13
2023-05-13T04:48:52.045Z,38.11
2023-05-13T04:49:52.099Z,38.11
2023-05-13T04:50:52.152Z,38.11
2023-05-13T04:51:52.212Z,38.10
2023-05-13T04:52:52.271Z,38.11
2023-05-13T04:53:52.329Z,38.11
2023-05-13T04:54:52.383Z,38.13
2023-05-13T04:55:52.449Z,38.12
2023-05-13T04:56:52.508Z,38.12
2023-05-13T04:57:52.566Z,38.13
2023-05-13T04:58:52.633Z,38.14
2023-05-13T04:59:52.706Z,38.11
2023-05-13T05:00:52.732Z,38.10
2023-05-13T05:01:52.844Z,38.12
2023-05-13T05:02:52.923Z,38.11
2023-05-13T05:03:52.931Z,38.12
2023-05-13T05:04:52.973Z,38.12
2023-05-13T05:05:53.032Z,38.12
2023-05-13T05:06:53.091Z,38.12
2023-05-13T05:07:53.153Z,38.13
2023-05-13T05:08:53.207Z,38.13
2023-05-13T05:09:53.256Z,38.14
2023-05-13T05:10:53.314Z,38.11
2023-05-13T05:11:53.732Z,38.11
2023-05-13T05:12:53.773Z,38.13
2023-05-13T05:13:53.778Z,38.12
2023-05-13T05:14:53.777Z,38.10
2023-05-13T05:15:53.808Z,38.12
2023-05-13T05:16:53.815Z,38.10
2023-05-13T05:17:53.956Z,38.12
2023-05-13T05:18:53.868Z,38.10
2023-05-13T05:19:53.827Z,38.11
2023-05-13T05:20:53.890Z,38.11
2023-05-13T05:21:53.946Z,38.12
2023-05-13T05:22:53.997Z,38.10
2023-05-13T05:23:54.055Z,38.12
2023-05-13T05:24:54.112Z,38.11
2023-05-13T05:26:00.835Z,38.11
2023-05-13T05:26:54.174Z,38.12
2023-05-13T05:27:54.156Z,38.11
2023-05-13T05:28:54.146Z,38.12
2023-05-13T05:29:54.146Z,38.14
2023-05-13T05:30:54.128Z,38.11
2023-05-13T05:31:54.194Z,38.14
2023-05-13T05:32:54.126Z,38.13
2023-05-13T05:33:54.106Z,38.13
2023-05-13T05:34:54.097Z,38.10
2023-05-13T05:35:54.086Z,38.11
2023-05-13T05:36:54.096Z,38.10
2023-05-13T05:37:54.079Z,38.11
2023-05-13T05:38:54.091Z,38.12
2023-05-13T05:39:54.064Z,38.11
2023-05-13T05:40:54.063Z,38.11
2023-05-13T05:41:54.042Z,38.11
2023-05-13T05:42:54.038Z,38.11
2023-05-13T05:43:54.040Z,38.10
2023-05-13T05:44:54.102Z,38.13
2023-05-13T05:45:54.237Z,38.09
2023-05-13T05:46:54.217Z,38.11
2023-05-13T05:47:54.357Z,38.11
2023-05-13T05:48:54.716Z,38.10
2023-05-13T05:49:54.710Z,38.11
2023-05-13T05:50:54.705Z,38.09
2023-05-13T05:51:54.720Z,38.10
2023-05-13T05:52:54.707Z,38.09
2023-05-13T05:53:54.712Z,38.10
2023-05-13T05:54:54.712Z,38.09
2023-05-13T05:55:54.736Z,38.09
2023-05-13T05:56:54.807Z,38.11
2023-05-13T05:57:54.859Z,38.07
2023-05-13T05:58:54.919Z,38.08
2023-05-13T05:59:54.965Z,38.09
2023-05-13T06:00:55.018Z,38.12
2023-05-13T06:01:55.161Z,38.09
2023-05-13T06:02:55.250Z,38.09
2023-05-13T06:03:55.367Z,38.09
2023-05-13T06:04:55.242Z,38.10
2023-05-13T06:05:55.306Z,38.10
2023-05-13T06:06:55.403Z,38.09
2023-05-13T06:07:55.398Z,38.09
2023-05-13T06:08:55.448Z,38.07
2023-05-13T06:09:55.506Z,38.06
2023-05-13T06:10:55.557Z,38.09
2023-05-13T06:11:55.624Z,38.10
2023-05-13T06:12:55.671Z,38.11
2023-05-13T06:13:55.742Z,38.09
2023-05-13T06:14:55.782Z,38.09
2023-05-13T06:15:55.902Z,38.10
2023-05-13T06:16:56.086Z,38.09
2023-05-13T06:17:56.002Z,38.10
2023-05-13T06:18:56.105Z,38.08
2023-05-13T06:19:56.112Z,38.10
2023-05-13T06:20:56.140Z,38.07
2023-05-13T06:21:56.197Z,38.08
2023-05-13T06:22:56.253Z,38.09
2023-05-13T06:23:56.307Z,38.08
2023-05-13T06:24:56.390Z,38.10
2023-05-13T06:25:56.442Z,38.08
2023-05-13T06:26:56.486Z,38.09
2023-05-13T06:27:56.534Z,38.06
2023-05-13T06:28:56.595Z,38.07
2023-05-13T06:29:56.650Z,38.08
2023-05-13T06:30:56.806Z,38.07
2023-05-13T06:31:56.772Z,38.05
2023-05-13T06:33:01.641Z,38.07
2023-05-13T06:33:56.801Z,38.06
2023-05-13T06:34:56.783Z,38.05
2023-05-13T06:35:57.352Z,38.08
2023-05-13T06:36:56.775Z,38.09
2023-05-13T06:37:56.765Z,38.06
2023-05-13T06:38:56.752Z,38.05
2023-05-13T06:39:56.747Z,38.06
2023-05-13T06:40:56.749Z,38.04
2023-05-13T06:41:56.735Z,38.04
2023-05-13T06:42:56.726Z,38.04
2023-05-13T06:43:56.724Z,38.06
2023-05-13T06:44:56.708Z,38.04
2023-05-13T06:45:56.701Z,38.03
2023-05-13T06:46:56.712Z,38.04
2023-05-13T06:47:56.769Z,38.05
2023-05-13T06:48:56.688Z,38.03
2023-05-13T06:49:56.678Z,38.03
2023-05-13T06:50:56.698Z,38.05
2023-05-13T06:51:56.781Z,38.03
2023-05-13T06:52:56.813Z,38.03
2023-05-13T06:53:56.883Z,38.00
2023-05-13T06:54:56.923Z,38.02
2023-05-13T06:55:57.049Z,38.01
2023-05-13T06:56:57.064Z,38.01
2023-05-13T06:57:57.093Z,38.00
2023-05-13T06:58:57.160Z,38.01
2023-05-13T06:59:57.211Z,38.01
2023-05-13T07:00:57.317Z,37.98
2023-05-13T07:01:57.328Z,37.98
2023-05-13T07:02:57.417Z,37.98
2023-05-13T07:03:57.470Z,38.00
2023-05-13T07:04:57.494Z,37.99
2023-05-13T07:05:57.548Z,37.99
2023-05-13T07:06:57.595Z,37.99
2023-05-13T07:07:57.667Z,37.97
2023-05-13T07:08:57.717Z,37.99
2023-05-13T07:09:57.771Z,37.97
2023-05-13T07:10:57.796Z,37.97
2023-05-13T07:11:57.850Z,37.96
2023-05-13T07:12:57.907Z,37.97
2023-05-13T07:13:57.969Z,37.98
2023-05-13T07:14:58.009Z,37.98
2023-05-13T07:15:58.056Z,37.96
2023-05-13T07:16:58.118Z,37.94
2023-05-13T07:17:58.199Z,37.97
2023-05-13T07:18:58.291Z,37.95
2023-05-13T07:19:58.263Z,37.96
2023-05-13T07:20:58.836Z,37.95
2023-05-13T07:21:58.379Z,37.96
2023-05-13T07:22:58.399Z,37.96
2023-05-13T07:23:58.467Z,37.94
2023-05-13T07:24:58.490Z,37.94
2023-05-13T07:25:58.545Z,37.92
2023-05-13T07:26:58.601Z,37.95
2023-05-13T07:27:58.669Z,37.93
2023-05-13T07:28:58.678Z,37.92
2023-05-13T07:29:58.727Z,37.93
2023-05-13T07:30:58.875Z,37.93
2023-05-13T07:31:58.816Z,37.92
2023-05-13T07:32:58.946Z,37.91
2023-05-13T07:33:58.924Z,37.92
2023-05-13T07:34:58.957Z,37.93
2023-05-13T07:35:58.996Z,37.90
2023-05-13T07:36:59.041Z,37.90
2023-05-13T07:37:59.074Z,37.89
2023-05-13T07:38:59.511Z,37.88
2023-05-13T07:39:59.188Z,37.91
2023-05-13T07:40:59.209Z,37.90
2023-05-13T07:41:59.265Z,37.89
2023-05-13T07:42:59.306Z,37.89
2023-05-13T07:43:59.326Z,37.88
2023-05-13T07:44:59.755Z,37.88
2023-05-13T07:45:59.757Z,37.87
2023-05-13T07:46:59.811Z,37.86
2023-05-13T07:47:59.821Z,37.84
2023-05-13T07:48:59.772Z,37.85
2023-05-13T07:49:59.765Z,37.87
2023-05-13T07:50:59.770Z,37.88
2023-05-13T07:51:59.755Z,37.88
2023-05-13T07:52:59.756Z,37.87
2023-05-13T07:53:59.807Z,37.87
2023-05-13T07:54:59.778Z,37.85
2023-05-13T07:55:59.857Z,37.83
2023-05-13T07:56:59.866Z,37.85
2023-05-13T07:57:59.915Z,37.85
2023-05-13T07:58:59.964Z,37.84
2023-05-13T08:00:00.003Z,37.83
2023-05-13T08:01:00.051Z,37.83
2023-05-13T08:02:00.156Z,37.84
2023-05-13T08:03:00.231Z,37.82
2023-05-13T08:04:00.559Z,37.84
2023-05-13T08:05:00.317Z,37.82
2023-05-13T08:06:00.265Z,37.82
2023-05-13T08:07:00.648Z,37.81
2023-05-13T08:08:00.707Z,37.82
2023-05-13T08:09:00.693Z,37.83
2023-05-13T08:10:00.690Z,37.81
2023-05-13T08:11:00.704Z,37.80
2023-05-13T08:12:00.733Z,37.83
2023-05-13T08:13:00.690Z,37.80
2023-05-13T08:14:00.700Z,37.78
2023-05-13T08:15:00.700Z,37.80
2023-05-13T08:16:00.731Z,37.78
2023-05-13T08:17:00.687Z,37.82
2023-05-13T08:18:00.772Z,37.83
2023-05-13T08:19:00.796Z,37.79
2023-05-13T08:20:00.803Z,37.79
2023-05-13T08:21:00.855Z,37.81
2023-05-13T08:22:00.872Z,37.80
2023-05-13T08:23:00.909Z,37.80
2023-05-13T08:24:00.944Z,37.80
2023-05-13T08:25:01.132Z,37.82
2023-05-13T08:26:01.018Z,37.77
2023-05-13T08:27:01.064Z,37.79
2023-05-13T08:28:01.119Z,37.79
2023-05-13T08:29:01.127Z,37.79
2023-05-13T08:30:01.165Z,37.79
2023-05-13T08:31:01.211Z,37.81
2023-05-13T08:32:01.314Z,37.79
2023-05-13T08:33:01.370Z,37.78
2023-05-13T08:34:01.305Z,37.77
2023-05-13T08:35:01.355Z,37.77
2023-05-13T08:36:01.375Z,37.78
2023-05-13T08:37:01.429Z,37.78
2023-05-13T08:38:01.449Z,37.79
2023-05-13T08:39:01.503Z,37.78
2023-05-13T08:40:01.547Z,37.77
2023-05-13T08:41:01.557Z,37.77
2023-05-13T08:42:01.585Z,37.75
2023-05-13T08:43:01.627Z,37.75
2023-05-13T08:44:01.707Z,37.77
2023-05-13T08:45:01.703Z,37.76
2023-05-13T08:46:01.790Z,37.77
2023-05-13T08:47:01.778Z,37.75
2023-05-13T08:48:01.862Z,37.78
2023-05-13T08:49:01.839Z,37.77
2023-05-13T08:50:01.902Z,37.78
2023-05-13T08:51:01.946Z,37.73
2023-05-13T08:52:01.951Z,37.73
2023-05-13T08:53:02.009Z,37.75
2023-05-13T08:54:02.016Z,37.75
2023-05-13T08:55:02.086Z,37.77
2023-05-13T08:56:02.098Z,37.75
2023-05-13T08:57:02.120Z,37.73
2023-05-13T08:58:02.159Z,37.73
2023-05-13T08:59:02.184Z,37.74
2023-05-13T09:00:02.242Z,37.75
2023-05-13T09:01:02.304Z,37.74
2023-05-13T09:02:02.268Z,37.72
2023-05-13T09:03:02.372Z,37.74
2023-05-13T09:04:02.347Z,37.73
2023-05-13T09:05:02.425Z,37.74
2023-05-13T09:06:02.395Z,37.75
2023-05-13T09:07:02.414Z,37.73
2023-05-13T09:08:02.498Z,37.74
2023-05-13T09:09:02.505Z,37.74
2023-05-13T09:10:02.530Z,37.72
2023-05-13T09:11:02.566Z,37.70
2023-05-13T09:12:02.594Z,37.76
2023-05-13T09:13:02.615Z,37.75
2023-05-13T09:14:02.653Z,37.74
2023-05-13T09:15:02.678Z,37.76
2023-05-13T09:16:02.766Z,37.77
2023-05-13T09:17:02.735Z,37.74
2023-05-13T09:18:02.855Z,37.74
2023-05-13T09:19:02.872Z,37.75
2023-05-13T09:20:03.013Z,37.72
2023-05-13T09:21:02.839Z,37.77
2023-05-13T09:22:02.874Z,37.76
2023-05-13T09:23:02.898Z,37.70
2023-05-13T09:24:02.934Z,37.76
2023-05-13T09:25:02.958Z,37.74
2023-05-13T09:26:02.992Z,37.76
2023-05-13T09:27:03.031Z,37.76
2023-05-13T09:28:03.060Z,37.74
2023-05-13T09:29:03.079Z,37.73
2023-05-13T09:30:03.111Z,37.77
2023-05-13T09:31:03.138Z,37.72
2023-05-13T09:32:03.186Z,37.72
2023-05-13T09:33:03.215Z,37.75
2023-05-13T09:34:03.228Z,37.74
2023-05-13T09:35:03.246Z,37.73
2023-05-13T09:36:03.261Z,37.73
2023-05-13T09:37:03.318Z,37.74
2023-05-13T09:38:03.314Z,37.71
2023-05-13T09:39:03.349Z,37.73
2023-05-13T09:40:03.381Z,37.73
2023-05-13T09:41:03.388Z,37.74
2023-05-13T09:42:04.883Z,37.74
2023-05-13T09:43:03.412Z,37.74
2023-05-13T09:44:03.401Z,37.73
2023-05-13T09:45:03.398Z,37.71
2023-05-13T09:46:03.387Z,37.72
2023-05-13T09:47:03.609Z,37.70
2023-05-13T09:48:03.448Z,37.72
2023-05-13T09:49:03.371Z,37.70
2023-05-13T09:50:03.383Z,37.72
2023-05-13T09:51:03.362Z,37.70
2023-05-13T09:52:03.349Z,37.69
2023-05-13T09:53:03.347Z,37.70
2023-05-13T09:54:03.340Z,37.67
2023-05-13T09:55:03.350Z,37.68
2023-05-13T09:56:03.345Z,37.65
2023-05-13T09:57:03.331Z,37.68
2023-05-13T09:58:03.308Z,37.68
2023-05-13T09:59:03.357Z,37.67
2023-05-13T10:00:03.292Z,37.64
2023-05-13T10:01:03.302Z,37.64
2023-05-13T10:02:03.290Z,37.63
2023-05-13T10:03:03.373Z,37.65
2023-05-13T10:04:03.338Z,37.64
2023-05-13T10:05:03.263Z,37.63
2023-05-13T10:06:03.692Z,37.67
2023-05-13T10:07:03.249Z,37.63
2023-05-13T10:08:03.238Z,37.63
2023-05-13T10:09:03.236Z,37.61
2023-05-13T10:10:03.224Z,37.61
2023-05-13T10:11:03.229Z,37.62
2023-05-13T10:12:03.227Z,37.58
2023-05-13T10:13:03.205Z,37.59
2023-05-13T10:14:03.191Z,37.61
2023-05-13T10:15:03.206Z,37.60
2023-05-13T10:16:03.191Z,37.61
2023-05-13T10:17:03.199Z,37.64
2023-05-13T10:18:04.185Z,37.62
2023-05-13T10:19:03.247Z,37.61
2023-05-13T10:20:03.178Z,37.60
2023-05-13T10:21:03.142Z,37.60
2023-05-13T10:22:03.141Z,37.61
2023-05-13T10:23:03.125Z,37.60
2023-05-13T10:24:03.140Z,37.58
2023-05-13T10:25:03.122Z,37.58
2023-05-13T10:26:03.108Z,37.58
2023-05-13T10:27:03.095Z,37.57
2023-05-13T10:28:03.118Z,37.55
2023-05-13T10:29:03.084Z,37.59
2023-05-13T10:30:03.901Z,37.61
2023-05-13T10:31:03.089Z,37.59
2023-05-13T10:32:03.085Z,37.57
2023-05-13T10:33:03.093Z,37.57
2023-05-13T10:34:03.051Z,37.57
2023-05-13T10:35:03.051Z,37.56
2023-05-13T10:36:03.072Z,37.56
2023-05-13T10:37:03.030Z,37.58
2023-05-13T10:38:03.028Z,37.57
2023-05-13T10:39:03.019Z,37.55
2023-05-13T10:40:03.011Z,37.54
2023-05-13T10:41:03.005Z,37.55
2023-05-13T10:42:03.000Z,37.57
2023-05-13T10:43:03.004Z,37.53
2023-05-13T10:44:03.001Z,37.54
2023-05-13T10:45:02.985Z,37.53
2023-05-13T10:46:03.027Z,37.51
2023-05-13T10:47:02.964Z,37.53
2023-05-13T10:48:03.114Z,37.50
2023-05-13T10:49:02.959Z,37.51
2023-05-13T10:50:02.941Z,37.54
2023-05-13T10:51:02.938Z,37.53
2023-05-13T10:52:02.945Z,37.51
2023-05-13T10:53:02.913Z,37.52
2023-05-13T10:54:02.916Z,37.52
2023-05-13T10:55:02.950Z,37.49
2023-05-13T10:56:02.955Z,37.51
2023-05-13T10:57:02.946Z,37.49
2023-05-13T10:58:02.972Z,37.47
2023-05-13T10:59:02.981Z,37.49
2023-05-13T11:00:02.985Z,37.47
2023-05-13T11:01:03.004Z,37.45
2023-05-13T11:02:03.044Z,37.45
2023-05-13T11:03:03.123Z,37.46
2023-05-13T11:04:03.210Z,37.45
2023-05-13T11:05:03.083Z,37.42
2023-05-13T11:06:03.083Z,37.44
2023-05-13T11:07:03.099Z,37.43
2023-05-13T11:08:03.141Z,37.43
2023-05-13T11:09:03.136Z,37.41
2023-05-13T11:10:03.149Z,37.43
2023-05-13T11:11:03.155Z,37.42
2023-05-13T11:12:03.181Z,37.43
2023-05-13T11:13:03.184Z,37.41
2023-05-13T11:14:03.206Z,37.44
2023-05-13T11:15:03.228Z,37.44
2023-05-13T11:16:03.266Z,37.44
2023-05-13T11:17:03.234Z,37.43
2023-05-13T11:18:03.296Z,37.46
2023-05-13T11:19:03.345Z,37.47
2023-05-13T11:20:03.278Z,37.44
2023-05-13T11:21:05.074Z,37.44
2023-05-13T11:22:03.295Z,37.43
2023-05-13T11:23:03.277Z,37.47
2023-05-13T11:24:03.287Z,37.47
2023-05-13T11:25:03.272Z,37.45
2023-05-13T11:26:03.253Z,37.45
2023-05-13T11:27:03.257Z,37.43
2023-05-13T11:28:03.243Z,37.43
2023-05-13T11:29:03.235Z,37.48
2023-05-13T11:30:03.223Z,37.47
2023-05-13T11:31:03.250Z,37.45
2023-05-13T11:32:03.240Z,37.46
2023-05-13T11:33:03.290Z,37.48
2023-05-13T11:34:03.202Z,37.45
2023-05-13T11:35:03.194Z,37.46
2023-05-13T11:36:03.178Z,37.46
2023-05-13T11:37:03.177Z,37.47
2023-05-13T11:38:03.181Z,37.45
2023-05-13T11:39:03.182Z,37.48
2023-05-13T11:40:03.200Z,37.46
2023-05-13T11:41:03.159Z,37.47
2023-05-13T11:42:03.139Z,37.44
2023-05-13T11:43:03.132Z,37.46
2023-05-13T11:44:03.136Z,37.48
2023-05-13T11:45:03.117Z,37.46
2023-05-13T11:46:03.169Z,37.46
2023-05-13T11:47:03.106Z,37.47
2023-05-13T11:48:03.125Z,37.44
2023-05-13T11:49:04.210Z,37.44
2023-05-13T11:50:03.073Z,37.44
2023-05-13T11:51:03.075Z,37.45
2023-05-13T11:52:03.062Z,37.43
2023-05-13T11:53:03.057Z,37.40
2023-05-13T11:54:03.048Z,37.40
2023-05-13T11:55:03.861Z,37.37
2023-05-13T11:56:03.057Z,37.37
2023-05-13T11:57:03.028Z,37.37
2023-05-13T11:58:03.018Z,37.33
2023-05-13T11:59:03.009Z,37.35
2023-05-13T12:00:03.000Z,37.34
2023-05-13T12:01:02.991Z,37.34
2023-05-13T12:02:03.084Z,37.31
2023-05-13T12:03:03.133Z,37.33
2023-05-13T12:04:02.971Z,37.33
2023-05-13T12:05:03.017Z,37.33
2023-05-13T12:06:02.964Z,37.33
2023-05-13T12:07:02.947Z,37.31
2023-05-13T12:08:02.954Z,37.32
2023-05-13T12:09:02.966Z,37.35
2023-05-13T12:10:02.931Z,37.32
2023-05-13T12:11:02.931Z,37.37
2023-05-13T12:12:02.936Z,37.34
2023-05-13T12:13:02.914Z,37.35
2023-05-13T12:14:02.889Z,37.38
2023-05-13T12:15:02.893Z,37.37
2023-05-13T12:16:02.928Z,37.39
2023-05-13T12:17:02.870Z,37.40
2023-05-13T12:18:02.957Z,37.38
2023-05-13T12:19:02.902Z,37.40
2023-05-13T12:20:02.839Z,37.38
2023-05-13T12:21:02.835Z,37.40
2023-05-13T12:22:04.773Z,37.42
2023-05-13T12:23:02.825Z,37.42
2023-05-13T12:24:02.810Z,37.42
2023-05-13T12:25:02.812Z,37.44
2023-05-13T12:26:02.797Z,37.47
2023-05-13T12:27:02.778Z,37.42
2023-05-13T12:28:02.819Z,37.42
2023-05-13T12:29:02.769Z,37.44
2023-05-13T12:30:02.792Z,37.43
2023-05-13T12:31:02.827Z,37.42
2023-05-13T12:32:02.747Z,37.44
2023-05-13T12:33:02.771Z,37.43
2023-05-13T12:34:02.736Z,37.44
2023-05-13T12:35:02.719Z,37.43
2023-05-13T12:36:02.749Z,37.45
2023-05-13T12:37:02.739Z,37.44
2023-05-13T12:38:02.709Z,37.40
2023-05-13T12:39:02.683Z,37.43
2023-05-13T12:40:02.692Z,37.41
2023-05-13T12:41:02.690Z,37.42
2023-05-13T12:42:02.662Z,37.43
2023-05-13T12:43:02.661Z,37.43
2023-05-13T12:44:02.678Z,37.44
2023-05-13T12:45:02.655Z,37.44
2023-05-13T12:46:02.643Z,37.40
2023-05-13T12:47:02.739Z,37.41
2023-05-13T12:48:02.669Z,37.45
2023-05-13T12:49:02.614Z,37.46
2023-05-13T12:50:02.619Z,37.43
2023-05-13T12:51:02.615Z,37.46
2023-05-13T12:52:02.598Z,37.43
2023-05-13T12:53:02.595Z,37.45